Time;durP1;ratioP1;P1;durP2;ratioP2;P2;SDS_P1;SDS_P2;PMS_P1;PMS_P2;Temp;Humidity;BMP_temperature;BMP_pressure;BME280_temperature;BME280_humidity;BME280_pressure;Samples;Min_cycle;Max_cycle;Signal;HPM_P1;HPM_P2
2021/04/25 00:02:25;;;;;;;8.63;5.50;;;8.70;68.50;;;;;;5081637;28;20222;-86
2021/04/25 00:04:51;;;;;;;12.17;6.60;;;8.70;69.40;;;;;;5067754;28;20434;-86
2021/04/25 00:07:17;;;;;;;8.90;6.00;;;8.60;70.10;;;;;;5065575;28;20453;-86
2021/04/25 00:09:43;;;;;;;7.67;6.40;;;8.60;70.50;;;;;;5084577;28;20790;-86
2021/04/25 00:12:09;;;;;;;8.33;6.30;;;8.60;70.90;;;;;;5085199;28;20410;-86
2021/04/25 00:14:35;;;;;;;9.07;6.37;;;8.60;71.90;;;;;;5075007;28;20749;-86
2021/04/25 00:17:01;;;;;;;8.50;6.07;;;8.60;72.60;;;;;;5069405;28;20517;-87
2021/04/25 00:19:27;;;;;;;8.00;5.60;;;8.50;73.20;;;;;;5086532;28;20196;-87
2021/04/25 00:21:53;;;;;;;10.67;6.60;;;8.50;73.50;;;;;;5069649;28;20751;-85
2021/04/25 00:24:18;;;;;;;8.00;5.40;;;8.50;74.00;;;;;;5068541;28;20164;-86
2021/04/25 00:26:44;;;;;;;10.00;5.97;;;8.40;74.40;;;;;;5085204;28;20172;-85
2021/04/25 00:29:10;;;;;;;8.57;6.00;;;8.40;74.80;;;;;;5071906;28;20191;-86
2021/04/25 00:31:35;;;;;;;10.43;6.37;;;8.40;75.50;;;;;;5069105;28;20188;-86
2021/04/25 00:34:01;;;;;;;8.03;5.73;;;8.30;75.90;;;;;;5085216;28;20165;-86
2021/04/25 00:36:30;;;;;;;8.47;5.70;;;8.30;76.30;;;;;;5068425;28;20251;-87
2021/04/25 00:38:56;;;;;;;8.47;5.63;;;8.30;76.70;;;;;;5069327;28;20172;-86
2021/04/25 00:41:21;;;;;;;10.13;7.30;;;8.30;76.90;;;;;;5069754;28;20457;-86
2021/04/25 00:43:49;;;;;;;9.20;6.77;;;8.20;77.20;;;;;;5081275;28;20204;-86
2021/04/25 00:46:15;;;;;;;6.67;5.40;;;8.20;77.40;;;;;;5068811;28;20498;-85
2021/04/25 00:48:41;;;;;;;6.70;5.40;;;8.20;77.60;;;;;;5085499;28;20501;-86
2021/04/25 00:51:10;;;;;;;7.47;4.90;;;8.10;77.80;;;;;;5068523;28;20279;-86
2021/04/25 00:53:36;;;;;;;7.40;5.50;;;8.10;78.20;;;;;;5085131;28;20251;-86
2021/04/25 00:56:02;;;;;;;10.50;5.97;;;8.00;78.60;;;;;;5068291;28;20534;-86
2021/04/25 00:58:28;;;;;;;9.60;5.43;;;8.00;79.00;;;;;;5068539;28;20212;-86
2021/04/25 01:00:53;;;;;;;11.33;5.80;;;8.00;79.00;;;;;;5101486;28;20172;-86
2021/04/25 01:03:23;;;;;;;7.80;5.40;;;8.00;79.30;;;;;;5084192;28;20557;-86
2021/04/25 01:05:50;;;;;;;6.37;5.77;;;8.00;79.40;;;;;;5085892;28;20180;-86
2021/04/25 01:08:16;;;;;;;11.17;5.90;;;8.00;79.50;;;;;;5085395;28;20421;-86
2021/04/25 01:10:42;;;;;;;11.00;5.50;;;8.00;79.60;;;;;;5086245;28;20435;-86
2021/04/25 01:13:07;;;;;;;9.23;5.73;;;7.90;79.70;;;;;;5068949;28;20665;-85
2021/04/25 01:15:33;;;;;;;7.93;5.63;;;7.90;80.50;;;;;;5072021;28;20160;-85
2021/04/25 01:17:59;;;;;;;8.37;6.27;;;7.90;80.90;;;;;;5096016;28;20208;-86
2021/04/25 01:20:25;;;;;;;8.90;5.70;;;7.80;80.60;;;;;;5070026;28;20184;-86
2021/04/25 01:22:50;;;;;;;10.20;5.87;;;7.80;80.70;;;;;;5076741;28;20240;-86
2021/04/25 01:25:19;;;;;;;7.83;5.70;;;7.80;80.80;;;;;;5063321;28;20577;-86
2021/04/25 01:27:45;;;;;;;7.60;5.50;;;7.80;81.00;;;;;;5064422;28;20692;-86
2021/04/25 01:30:14;;;;;;;8.20;5.20;;;7.80;81.30;;;;;;5080243;28;20496;-86
2021/04/25 01:32:42;;;;;;;6.63;5.30;;;7.70;81.50;;;;;;5064023;28;20427;-86
2021/04/25 01:35:14;;;;;;;9.70;6.47;;;7.70;81.70;;;;;;5081565;28;20493;-86
2021/04/25 01:41:02;;;;;;;7.70;5.27;;;7.70;81.90;;;;;;5081739;28;20414;-86
2021/04/25 01:43:28;;;;;;;9.90;6.13;;;7.70;81.90;;;;;;5080410;28;20491;-86
2021/04/25 01:46:00;;;;;;;7.50;5.40;;;7.60;81.90;;;;;;5080800;28;20467;-86
2021/04/25 01:48:25;;;;;;;8.83;4.73;;;7.60;82.30;;;;;;5081443;28;20181;-86
2021/04/25 01:50:51;;;;;;;8.33;5.70;;;7.50;82.60;;;;;;5083893;28;20514;-87
2021/04/25 01:53:17;;;;;;;8.83;5.90;;;7.50;82.90;;;;;;5083858;28;20895;-86
2021/04/25 01:55:43;;;;;;;9.27;6.07;;;7.40;83.10;;;;;;5064278;28;20526;-87
2021/04/25 01:58:10;;;;;;;10.57;6.13;;;7.40;83.50;;;;;;5087751;28;20220;-86
2021/04/25 02:00:39;;;;;;;7.90;5.93;;;7.40;83.60;;;;;;5081049;28;20442;-87
2021/04/25 02:03:09;;;;;;;8.60;6.03;;;7.30;83.80;;;;;;5080126;28;20514;-87
2021/04/25 02:05:35;;;;;;;9.43;5.87;;;7.30;84.00;;;;;;5080625;28;20435;-87
2021/04/25 02:08:02;;;;;;;7.40;5.77;;;7.30;84.40;;;;;;5082287;28;20816;-87
2021/04/25 02:10:28;;;;;;;6.47;5.30;;;7.20;84.30;;;;;;5071130;28;20419;-87
2021/04/25 02:12:57;;;;;;;8.80;5.27;;;7.20;84.80;;;;;;5093172;28;20928;-87
2021/04/25 02:15:27;;;;;;;11.37;5.50;;;7.10;84.70;;;;;;5082792;28;20173;-87
2021/04/25 02:17:53;;;;;;;7.73;5.63;;;7.10;84.70;;;;;;5079593;28;20494;-87
2021/04/25 02:20:20;;;;;;;8.30;6.20;;;7.10;85.00;;;;;;5080993;28;20465;-86
2021/04/25 02:22:47;;;;;;;9.70;6.17;;;7.00;85.10;;;;;;5083104;28;20482;-87
2021/04/25 02:25:18;;;;;;;8.30;5.80;;;7.00;85.30;;;;;;5063509;28;20435;-86
2021/04/25 02:27:45;;;;;;;9.93;5.50;;;7.00;85.60;;;;;;5064513;28;20796;-87
2021/04/25 02:30:16;;;;;;;7.57;5.77;;;6.90;85.60;;;;;;5084023;28;20423;-86
2021/04/25 02:32:42;;;;;;;8.30;6.13;;;6.90;85.80;;;;;;5082806;28;20449;-86
2021/04/25 02:35:10;;;;;;;7.07;5.67;;;6.90;86.00;;;;;;5082200;28;20510;-87
2021/04/25 02:37:39;;;;;;;7.70;6.10;;;6.90;86.00;;;;;;5084162;28;20209;-87
2021/04/25 02:40:07;;;;;;;7.50;5.90;;;6.80;86.10;;;;;;5080118;28;20720;-86
2021/04/25 02:42:36;;;;;;;8.33;6.17;;;6.80;86.10;;;;;;5081055;28;20517;-86
2021/04/25 02:45:06;;;;;;;7.37;6.43;;;6.80;86.40;;;;;;5079754;28;20435;-87
2021/04/25 02:47:36;;;;;;;7.43;6.17;;;6.80;86.20;;;;;;5079650;28;20852;-87
2021/04/25 02:50:02;;;;;;;7.60;6.20;;;6.80;86.00;;;;;;5063018;28;20540;-87
2021/04/25 02:52:27;;;;;;;8.33;6.20;;;6.80;86.20;;;;;;5080313;28;20443;-87
2021/04/25 02:54:53;;;;;;;13.00;6.30;;;6.80;86.50;;;;;;5088392;28;20431;-87
2021/04/25 02:57:20;;;;;;;10.60;5.90;;;6.80;86.50;;;;;;5081209;28;20415;-87
2021/04/25 02:59:45;;;;;;;10.27;6.10;;;6.70;86.30;;;;;;5064504;28;20411;-88
2021/04/25 03:02:11;;;;;;;8.60;5.97;;;6.70;86.60;;;;;;5079898;28;20435;-87
2021/04/25 03:04:37;;;;;;;7.23;5.50;;;6.70;86.80;;;;;;5084677;28;20276;-87
2021/04/25 03:07:06;;;;;;;12.77;5.67;;;6.70;87.00;;;;;;5079170;28;20540;-87
2021/04/25 03:09:32;;;;;;;9.37;6.73;;;6.60;87.30;;;;;;5063418;28;20271;-86
2021/04/25 03:11:57;;;;;;;7.20;5.70;;;6.60;87.50;;;;;;5080628;28;20435;-87
2021/04/25 03:14:23;;;;;;;7.97;6.37;;;6.60;87.70;;;;;;5063683;28;20226;-87
2021/04/25 03:16:49;;;;;;;9.53;6.60;;;6.50;87.60;;;;;;5080110;28;20311;-87
2021/04/25 03:19:14;;;;;;;7.80;5.60;;;6.50;87.20;;;;;;5079125;28;20649;-86
2021/04/25 03:21:40;;;;;;;8.40;6.13;;;6.50;87.60;;;;;;5078149;28;20227;-88
2021/04/25 03:24:06;;;;;;;8.43;6.87;;;6.50;87.80;;;;;;5079407;28;20188;-86
2021/04/25 03:26:32;;;;;;;8.70;5.90;;;6.40;88.10;;;;;;5081315;28;20181;-87
2021/04/25 03:28:57;;;;;;;10.73;5.93;;;6.40;88.30;;;;;;5081098;28;20423;-86
2021/04/25 03:31:23;;;;;;;8.93;6.20;;;6.40;88.10;;;;;;5079712;28;20521;-87
2021/04/25 03:33:49;;;;;;;8.10;6.13;;;6.40;89.00;;;;;;5082587;28;20181;-87
2021/04/25 03:36:14;;;;;;;12.57;7.50;;;6.40;88.40;;;;;;5064978;28;20482;-86
2021/04/25 03:38:40;;;;;;;10.60;6.47;;;6.30;88.40;;;;;;5080835;28;20189;-87
2021/04/25 03:41:06;;;;;;;11.17;7.37;;;6.30;88.70;;;;;;5079088;28;20176;-87
2021/04/25 03:43:31;;;;;;;9.70;6.53;;;6.30;88.90;;;;;;5078810;28;20188;-86
2021/04/25 03:45:57;;;;;;;11.07;6.43;;;6.30;89.10;;;;;;5078514;28;20170;-87
2021/04/25 03:48:23;;;;;;;8.40;6.43;;;6.20;89.20;;;;;;5061098;28;20216;-88
2021/04/25 03:50:50;;;;;;;8.30;6.80;;;6.20;89.70;;;;;;5079016;28;20185;-87
2021/04/25 03:53:16;;;;;;;8.53;5.87;;;6.20;89.70;;;;;;5078603;28;20220;-87
2021/04/25 03:55:42;;;;;;;11.50;6.13;;;6.20;89.50;;;;;;5078500;28;20858;-87
2021/04/25 03:58:08;;;;;;;12.20;6.73;;;6.20;89.60;;;;;;5078240;28;20224;-86
2021/04/25 04:00:34;;;;;;;8.57;5.90;;;6.10;89.90;;;;;;5078793;28;20701;-88
2021/04/25 04:02:59;;;;;;;10.00;6.93;;;6.20;89.80;;;;;;5079709;28;20185;-86
2021/04/25 04:05:25;;;;;;;6.83;6.10;;;6.20;89.60;;;;;;5080426;28;20218;-87
2021/04/25 04:07:51;;;;;;;10.60;6.10;;;6.10;89.70;;;;;;5079177;28;20570;-86
2021/04/25 04:10:16;;;;;;;11.13;6.60;;;6.10;90.00;;;;;;5083376;28;20157;-86
2021/04/25 04:12:43;;;;;;;9.47;6.30;;;6.10;90.00;;;;;;5078913;28;20187;-87
2021/04/25 04:15:12;;;;;;;12.33;7.30;;;6.10;90.00;;;;;;5078431;28;20642;-87
2021/04/25 04:17:38;;;;;;;9.90;6.77;;;6.10;90.10;;;;;;5079726;28;20478;-86
2021/04/25 04:20:05;;;;;;;10.53;6.53;;;6.10;90.10;;;;;;5079013;28;20426;-86
2021/04/25 04:22:31;;;;;;;7.80;6.23;;;6.00;90.10;;;;;;5080199;28;20239;-87
2021/04/25 04:25:00;;;;;;;9.60;6.47;;;6.00;90.50;;;;;;5064720;28;20431;-87
2021/04/25 04:27:26;;;;;;;9.80;7.50;;;6.00;90.30;;;;;;5080569;28;20435;-87
2021/04/25 04:29:51;;;;;;;7.93;6.53;;;5.90;90.40;;;;;;5080761;28;20434;-87
2021/04/25 04:32:17;;;;;;;13.30;7.30;;;5.90;90.60;;;;;;5062560;28;20471;-86
2021/04/25 04:34:43;;;;;;;9.87;6.60;;;6.00;90.50;;;;;;5081070;28;20177;-86
2021/04/25 04:37:09;;;;;;;11.07;6.47;;;6.00;90.40;;;;;;5079071;28;20217;-87
2021/04/25 04:39:35;;;;;;;7.83;6.63;;;6.00;90.50;;;;;;5081722;28;20849;-87
2021/04/25 04:42:00;;;;;;;9.33;6.63;;;6.00;90.30;;;;;;5065378;28;20191;-86
2021/04/25 04:44:26;;;;;;;10.50;7.30;;;6.00;90.30;;;;;;5079188;28;20181;-86
2021/04/25 04:46:52;;;;;;;10.33;6.60;;;6.00;90.30;;;;;;5078513;28;20184;-87
2021/04/25 04:49:18;;;;;;;9.70;7.37;;;6.00;90.30;;;;;;5079049;28;20177;-87
2021/04/25 04:51:44;;;;;;;8.20;6.90;;;6.10;90.40;;;;;;5079970;28;20189;-87
2021/04/25 04:54:09;;;;;;;11.33;8.27;;;6.10;90.30;;;;;;5079901;28;20741;-87
2021/04/25 04:56:35;;;;;;;9.80;6.60;;;6.20;90.30;;;;;;5078090;28;20493;-87
2021/04/25 04:59:01;;;;;;;9.97;7.43;;;6.20;90.20;;;;;;5079734;28;20260;-88
2021/04/25 05:01:26;;;;;;;11.17;7.87;;;6.30;90.20;;;;;;5082340;28;20539;-87
2021/04/25 05:03:52;;;;;;;10.63;7.27;;;6.30;90.30;;;;;;5082389;28;20231;-86
2021/04/25 05:06:18;;;;;;;8.80;7.90;;;6.30;90.50;;;;;;5081382;28;20185;-87
2021/04/25 05:08:43;;;;;;;12.30;8.03;;;6.30;90.60;;;;;;5064547;28;20177;-87
2021/04/25 05:11:15;;;;;;;9.17;8.07;;;6.30;90.40;;;;;;5085913;28;20181;-87
2021/04/25 05:13:41;;;;;;;10.43;6.43;;;6.40;90.40;;;;;;5065421;28;20215;-86
2021/04/25 05:16:07;;;;;;;8.50;6.83;;;6.40;90.20;;;;;;5070542;28;20451;-87
2021/04/25 05:18:32;;;;;;;11.43;7.20;;;6.40;90.00;;;;;;5081584;28;20238;-88
2021/04/25 05:20:59;;;;;;;10.43;7.67;;;6.50;90.10;;;;;;5082571;28;20165;-87
2021/04/25 05:23:24;;;;;;;10.63;7.27;;;6.60;90.10;;;;;;5068532;28;20522;-87
2021/04/25 05:25:50;;;;;;;10.60;7.43;;;6.70;90.00;;;;;;5084466;28;20712;-87
2021/04/25 05:28:16;;;;;;;8.90;7.40;;;6.70;89.70;;;;;;5084730;28;20496;-87
2021/04/25 05:30:42;;;;;;;13.00;7.87;;;6.80;89.50;;;;;;5103637;28;20237;-87
2021/04/25 05:33:08;;;;;;;10.37;7.73;;;6.90;89.50;;;;;;5087632;28;20669;-87
2021/04/25 05:35:33;;;;;;;12.30;8.70;;;6.90;89.20;;;;;;5081566;28;20161;-87
2021/04/25 05:37:59;;;;;;;10.73;7.23;;;7.00;88.80;;;;;;5069636;28;20470;-87
2021/04/25 05:40:25;;;;;;;13.90;7.80;;;7.10;88.80;;;;;;5068347;28;20168;-87
2021/04/25 05:42:51;;;;;;;11.33;7.53;;;7.10;88.60;;;;;;5067165;28;20184;-87
2021/04/25 05:45:22;;;;;;;9.90;7.00;;;7.30;87.70;;;;;;5066024;28;20321;-87
2021/04/25 05:47:49;;;;;;;10.53;7.50;;;7.30;88.10;;;;;;5082334;28;20204;-87
2021/04/25 05:50:15;;;;;;;10.70;7.70;;;7.50;87.60;;;;;;5101128;28;20403;-87
2021/04/25 05:52:40;;;;;;;12.17;7.50;;;7.70;87.10;;;;;;5070643;28;20453;-87
2021/04/25 05:55:07;;;;;;;11.13;7.10;;;7.80;87.00;;;;;;5067967;28;20259;-87
2021/04/25 05:57:32;;;;;;;11.10;7.43;;;8.00;86.60;;;;;;5066731;28;20265;-87
2021/04/25 05:59:58;;;;;;;9.63;8.40;;;8.10;85.60;;;;;;5084560;28;20403;-87
2021/04/25 06:02:27;;;;;;;9.07;7.97;;;8.30;85.30;;;;;;5070676;28;20195;-87
2021/04/25 06:04:56;;;;;;;10.70;8.90;;;8.50;85.30;;;;;;5101390;28;20432;-87
2021/04/25 06:07:21;;;;;;;12.47;9.27;;;8.70;84.50;;;;;;5066956;28;20522;-87
2021/04/25 06:09:47;;;;;;;15.00;9.53;;;8.90;84.00;;;;;;5067394;28;20508;-87
2021/04/25 06:12:13;;;;;;;12.83;8.80;;;9.00;83.40;;;;;;5067330;28;20207;-87
2021/04/25 06:14:39;;;;;;;12.07;8.87;;;9.30;82.90;;;;;;5084373;28;20180;-87
2021/04/25 06:17:05;;;;;;;13.30;9.90;;;9.40;81.80;;;;;;5068104;28;20478;-87
2021/04/25 06:19:31;;;;;;;9.93;8.90;;;9.60;81.10;;;;;;5066313;28;20407;-86
2021/04/25 06:21:59;;;;;;;11.40;8.13;;;9.70;80.10;;;;;;5085726;28;20466;-88
2021/04/25 06:24:26;;;;;;;11.20;8.20;;;9.80;79.30;;;;;;5085170;28;20218;-86
2021/04/25 06:26:52;;;;;;;10.90;8.20;;;10.00;78.60;;;;;;5085611;28;20434;-87
2021/04/25 06:29:19;;;;;;;14.47;9.90;;;10.10;78.30;;;;;;5066872;28;20175;-88
2021/04/25 06:31:45;;;;;;;15.20;8.73;;;10.30;77.80;;;;;;5066503;28;20446;-86
2021/04/25 06:34:11;;;;;;;10.57;8.33;;;10.50;77.30;;;;;;5082361;28;20408;-86
2021/04/25 06:36:41;;;;;;;10.97;9.17;;;10.60;76.70;;;;;;5082198;28;20457;-86
2021/04/25 06:39:07;;;;;;;13.50;10.20;;;10.70;75.90;;;;;;5082078;28;20177;-86
2021/04/25 06:41:33;;;;;;;10.33;8.73;;;10.80;75.20;;;;;;5064546;28;20439;-86
2021/04/25 06:43:59;;;;;;;12.13;9.20;;;11.10;75.00;;;;;;5053433;28;20509;-88
2021/04/25 06:46:26;;;;;;;15.30;9.73;;;11.30;73.70;;;;;;5064460;28;20419;-87
2021/04/25 06:48:52;;;;;;;12.60;8.00;;;11.10;72.10;;;;;;5047114;28;20461;-87
2021/04/25 06:51:20;;;;;;;13.73;8.73;;;10.90;73.20;;;;;;5063315;28;20416;-88
2021/04/25 06:53:46;;;;;;;12.27;10.13;;;11.30;73.50;;;;;;5047175;28;20431;-86
2021/04/25 06:56:12;;;;;;;14.63;11.03;;;11.60;72.90;;;;;;5047495;28;20483;-88
2021/04/25 06:58:38;;;;;;;12.30;10.50;;;11.90;71.80;;;;;;5082528;28;20233;-88
2021/04/25 07:01:04;;;;;;;17.53;12.37;;;12.30;70.90;;;;;;5046714;28;20521;-88
2021/04/25 07:03:30;;;;;;;12.07;10.77;;;12.60;68.70;;;;;;5047457;28;20181;-87
2021/04/25 07:05:56;;;;;;;14.83;10.60;;;12.70;68.60;;;;;;5046118;28;20461;-88
2021/04/25 07:08:24;;;;;;;13.27;10.87;;;13.00;68.70;;;;;;5062870;28;20180;-88
2021/04/25 07:11:00;;;;;;;11.10;10.00;;;13.30;67.80;;;;;;5045658;28;20442;-87
2021/04/25 07:13:26;;;;;;;12.03;10.13;;;13.70;66.70;;;;;;5080724;28;20441;-87
2021/04/25 07:15:52;;;;;;;12.80;10.23;;;13.90;64.80;;;;;;5046597;28;20469;-88
2021/04/25 07:18:17;;;;;;;13.83;9.90;;;14.10;62.30;;;;;;5064054;28;20471;-85
2021/04/25 07:20:43;;;;;;;11.67;10.13;;;14.20;61.00;;;;;;5063967;28;20443;-85
2021/04/25 07:23:09;;;;;;;13.10;10.00;;;14.30;60.10;;;;;;5078427;28;20252;-87
2021/04/25 07:25:35;;;;;;;11.83;9.77;;;14.50;59.90;;;;;;5091456;28;20187;-86
2021/04/25 07:28:01;;;;;;;15.23;9.80;;;14.60;59.20;;;;;;5067386;28;20306;-87
2021/04/25 07:30:27;;;;;;;11.33;9.80;;;14.80;58.80;;;;;;5067722;28;20510;-86
2021/04/25 07:32:53;;;;;;;12.87;10.13;;;14.90;57.40;;;;;;5066295;28;20462;-86
2021/04/25 07:35:22;;;;;;;13.10;10.43;;;15.10;57.20;;;;;;5067294;28;20494;-86
2021/04/25 07:37:49;;;;;;;13.10;10.67;;;15.40;57.90;;;;;;5068005;28;20496;-86
2021/04/25 07:40:15;;;;;;;14.97;12.07;;;15.50;56.00;;;;;;5067821;28;20419;-87
2021/04/25 07:42:41;;;;;;;12.83;11.10;;;15.70;56.00;;;;;;5084454;28;20860;-86
2021/04/25 07:45:09;;;;;;;17.00;10.50;;;15.40;56.40;;;;;;5085353;28;20418;-86
2021/04/25 07:47:35;;;;;;;11.73;10.20;;;15.50;55.50;;;;;;5066675;28;20439;-86
2021/04/25 07:50:01;;;;;;;13.50;10.97;;;15.70;54.90;;;;;;5067388;28;20411;-86
2021/04/25 07:52:27;;;;;;;13.10;10.80;;;15.60;53.90;;;;;;5068624;28;20241;-87
2021/04/25 07:54:53;;;;;;;16.63;10.67;;;15.80;54.60;;;;;;5089670;28;20762;-87
2021/04/25 07:57:18;;;;;;;11.67;10.53;;;16.10;54.30;;;;;;5065940;28;20446;-87
2021/04/25 07:59:44;;;;;;;14.30;11.67;;;16.50;53.70;;;;;;5067112;28;20180;-87
2021/04/25 08:02:10;;;;;;;14.40;11.60;;;16.70;52.60;;;;;;5082572;28;20240;-87
2021/04/25 08:04:35;;;;;;;13.30;11.90;;;16.80;53.10;;;;;;5082210;28;20431;-87
2021/04/25 08:07:01;;;;;;;13.27;9.80;;;16.80;51.80;;;;;;5068465;28;20199;-87
2021/04/25 08:09:27;;;;;;;10.03;9.03;;;17.00;55.70;;;;;;5067524;28;20176;-87
2021/04/25 08:11:55;;;;;;;12.10;10.70;;;17.40;54.50;;;;;;5099193;28;20160;-88
2021/04/25 08:14:21;;;;;;;15.23;10.50;;;18.00;52.20;;;;;;5065614;28;20281;-87
2021/04/25 08:16:47;;;;;;;11.90;10.20;;;18.70;52.20;;;;;;5065722;28;20482;-87
2021/04/25 08:19:13;;;;;;;13.20;11.60;;;19.30;51.30;;;;;;5065397;28;20422;-88
2021/04/25 08:21:38;;;;;;;16.50;9.60;;;20.00;48.70;;;;;;5081452;28;20302;-88
2021/04/25 08:24:04;;;;;;;13.30;11.90;;;20.80;49.00;;;;;;5081296;28;20681;-88
2021/04/25 08:26:30;;;;;;;12.27;10.40;;;21.20;46.40;;;;;;5064884;28;20546;-87
2021/04/25 08:28:57;;;;;;;11.57;10.37;;;21.70;43.20;;;;;;5060230;28;20446;-89
2021/04/25 08:31:24;;;;;;;11.60;10.40;;;21.80;43.00;;;;;;5075640;28;20554;-88
2021/04/25 08:33:51;;;;;;;16.13;9.67;;;22.00;41.40;;;;;;5083234;28;20904;-88
2021/04/25 08:36:16;;;;;;;11.97;9.90;;;22.20;41.20;;;;;;5085289;28;20405;-87
2021/04/25 08:38:42;;;;;;;12.17;10.87;;;21.90;41.10;;;;;;5085725;28;20422;-88
2021/04/25 08:41:13;;;;;;;11.37;10.07;;;22.30;40.50;;;;;;5049236;28;20195;-87
2021/04/25 08:43:41;;;;;;;10.90;9.30;;;22.30;40.10;;;;;;5073657;28;20930;-88
2021/04/25 08:46:07;;;;;;;12.27;9.20;;;22.50;39.10;;;;;;5068492;28;20468;-87
2021/04/25 08:48:35;;;;;;;10.93;9.40;;;22.60;40.00;;;;;;5103689;28;20410;-87
2021/04/25 08:51:02;;;;;;;11.90;9.90;;;22.60;39.80;;;;;;5086317;28;20414;-88
2021/04/25 08:53:28;;;;;;;9.93;8.93;;;21.60;39.40;;;;;;5083843;28;20414;-87
2021/04/25 08:55:54;;;;;;;10.47;9.40;;;21.70;39.40;;;;;;5068364;28;20459;-88
2021/04/25 08:58:21;;;;;;;10.47;8.47;;;21.90;38.80;;;;;;5067224;28;20286;-87
2021/04/25 09:00:47;;;;;;;11.97;10.30;;;21.90;38.00;;;;;;5068502;28;20402;-87
2021/04/25 09:03:15;;;;;;;8.10;7.30;;;22.00;37.70;;;;;;5067672;28;21111;-88
2021/04/25 09:05:42;;;;;;;10.63;9.53;;;22.20;38.00;;;;;;5068037;28;20453;-87
2021/04/25 09:08:10;;;;;;;10.67;9.60;;;22.40;37.40;;;;;;5084696;28;20551;-87
2021/04/25 09:10:38;;;;;;;12.67;10.87;;;22.60;37.30;;;;;;5084828;28;20430;-87
2021/04/25 09:13:22;;;;;;;13.10;9.83;;;22.90;37.00;;;;;;5084083;28;20505;-87
2021/04/25 09:15:49;;;;;;;9.97;8.93;;;23.20;37.20;;;;;;5067881;28;20426;-87
2021/04/25 09:18:14;;;;;;;17.43;9.77;;;23.50;36.30;;;;;;5082205;28;20426;-88
2021/04/25 09:20:44;;;;;;;11.50;9.77;;;23.70;35.60;;;;;;5084590;28;20443;-88
2021/04/25 09:23:40;;;;;;;9.67;8.57;;;23.50;34.60;;;;;;5064592;28;20505;-89
2021/04/25 09:26:07;;;;;;;11.07;9.97;;;23.80;36.00;;;;;;5080194;28;20424;-86
2021/04/25 09:28:34;;;;;;;14.27;12.23;;;24.20;36.50;;;;;;5049032;28;20447;-87
2021/04/25 09:31:07;;;;;;;12.10;10.30;;;24.60;35.50;;;;;;5061279;28;20466;-87
2021/04/25 09:33:53;;;;;;;11.23;10.13;;;25.10;34.70;;;;;;5065040;28;20458;-87
2021/04/25 09:36:21;;;;;;;10.67;9.60;;;25.90;34.70;;;;;;5081931;28;20407;-87
2021/04/25 09:39:07;;;;;;;12.43;11.10;;;26.90;33.30;;;;;;5065642;28;20500;-87
2021/04/25 09:41:33;;;;;;;11.43;10.33;;;27.30;31.60;;;;;;5064632;28;20473;-86
2021/04/25 09:44:00;;;;;;;13.00;11.50;;;27.60;32.30;;;;;;5080442;28;20484;-86
2021/04/25 09:47:00;;;;;;;15.33;10.70;;;28.00;31.40;;;;;;5079786;28;20545;-86
2021/04/25 09:49:46;;;;;;;13.77;12.30;;;28.10;30.60;;;;;;5080179;28;20430;-86
2021/04/25 09:52:14;;;;;;;12.37;11.27;;;28.20;30.30;;;;;;5064056;28;20468;-85
2021/04/25 09:54:40;;;;;;;12.07;10.97;;;28.50;30.00;;;;;;5063300;28;20450;-86
2021/04/25 09:57:06;;;;;;;13.13;12.03;;;28.60;30.10;;;;;;5063467;28;20419;-85
2021/04/25 09:59:32;;;;;;;12.70;11.60;;;28.80;29.30;;;;;;5063566;28;20495;-86
2021/04/25 10:02:06;;;;;;;12.47;11.20;;;27.70;29.50;;;;;;5092254;28;20387;-86
2021/04/25 10:04:35;;;;;;;14.80;12.67;;;27.10;30.20;;;;;;5091308;28;20543;-87
2021/04/25 10:07:05;;;;;;;13.23;12.03;;;27.50;30.90;;;;;;5065871;28;20473;-87
2021/04/25 10:09:31;;;;;;;11.27;10.27;;;28.10;30.90;;;;;;5060862;28;20428;-85
2021/04/25 10:12:00;;;;;;;12.23;10.93;;;28.60;29.20;;;;;;5044492;28;20413;-86
2021/04/25 10:14:27;;;;;;;12.40;11.30;;;28.40;29.50;;;;;;5066603;28;20410;-87
2021/04/25 10:16:57;;;;;;;12.43;11.33;;;28.50;29.60;;;;;;5070340;28;20446;-86
2021/04/25 10:19:22;;;;;;;11.70;10.57;;;28.40;28.90;;;;;;5044389;28;20458;-86
2021/04/25 10:21:48;;;;;;;11.63;10.53;;;28.50;29.30;;;;;;5044270;28;20476;-87
2021/04/25 10:24:17;;;;;;;13.03;11.93;;;28.50;28.60;;;;;;5060577;28;20173;-86
2021/04/25 10:27:01;;;;;;;11.53;10.50;;;27.40;28.30;;;;;;5060423;28;20209;-86
2021/04/25 10:29:32;;;;;;;11.13;10.00;;;27.90;29.20;;;;;;5060871;28;20966;-86
2021/04/25 10:32:03;;;;;;;12.27;11.00;;;29.20;28.20;;;;;;5042920;28;20398;-86
2021/04/25 10:34:29;;;;;;;12.03;10.80;;;29.70;27.80;;;;;;5060715;28;20390;-87
2021/04/25 10:36:56;;;;;;;11.80;10.70;;;29.70;27.60;;;;;;5061814;28;20412;-86
2021/04/25 10:39:50;;;;;;;10.03;9.13;;;30.10;27.80;;;;;;5043996;28;20502;-86
2021/04/25 10:42:33;;;;;;;9.33;8.43;;;30.50;27.20;;;;;;5059772;28;20497;-86
2021/04/25 10:45:15;;;;;;;10.60;9.50;;;31.00;26.90;;;;;;5060961;28;20515;-87
2021/04/25 10:47:42;;;;;;;11.23;10.30;;;31.60;26.10;;;;;;5071036;28;20418;-86
2021/04/25 10:50:20;;;;;;;8.60;7.83;;;30.90;26.50;;;;;;5065305;28;20419;-87
2021/04/25 10:52:47;;;;;;;9.50;8.10;;;31.60;26.10;;;;;;5059537;28;20498;-89
2021/04/25 10:55:13;;;;;;;9.50;8.70;;;31.60;25.50;;;;;;5059642;28;20406;-86
2021/04/25 10:57:51;;;;;;;8.87;8.03;;;31.30;25.70;;;;;;5059157;28;20406;-86
2021/04/25 11:00:32;;;;;;;8.80;8.00;;;31.70;25.80;;;;;;5060025;28;20428;-87
2021/04/25 11:03:00;;;;;;;9.27;8.47;;;31.90;25.80;;;;;;5059639;28;20390;-89
2021/04/25 11:05:38;;;;;;;10.03;9.17;;;32.00;25.30;;;;;;5059008;28;20426;-86
2021/04/25 11:08:29;;;;;;;9.57;8.77;;;32.40;25.20;;;;;;5059140;28;20481;-88
2021/04/25 11:10:56;;;;;;;10.87;9.87;;;32.00;24.90;;;;;;5059839;28;20751;-86
2021/04/25 11:13:46;;;;;;;10.40;9.43;;;31.70;25.40;;;;;;5059343;28;20420;-88
2021/04/25 11:16:18;;;;;;;10.80;9.80;;;30.70;25.70;;;;;;5060239;28;20399;-89
2021/04/25 11:19:05;;;;;;;9.70;8.90;;;30.60;25.30;;;;;;5079584;28;20471;-86
2021/04/25 11:23:59;;;;;;;10.00;9.10;;;30.60;25.30;;;;;;5101312;28;20824;-90
2021/04/25 11:26:45;;;;;;;8.13;7.43;;;30.60;25.10;;;;;;5083153;28;20573;-87
2021/04/25 11:29:22;;;;;;;7.93;6.63;;;30.00;24.50;;;;;;5082634;28;20430;-87
2021/04/25 11:31:55;;;;;;;7.63;6.83;;;30.00;25.30;;;;;;5100154;28;20431;-87
2021/04/25 11:34:27;;;;;;;8.37;7.57;;;30.80;25.20;;;;;;5082155;28;20478;-88
2021/04/25 11:37:02;;;;;;;9.03;7.20;;;31.00;24.80;;;;;;5082280;28;20478;-86
2021/04/25 11:39:44;;;;;;;7.67;6.87;;;31.40;24.80;;;;;;5099131;28;20400;-88
2021/04/25 11:42:13;;;;;;;7.53;6.77;;;31.80;24.90;;;;;;5099313;28;20437;-87
2021/04/25 11:44:42;;;;;;;7.60;6.80;;;32.10;24.30;;;;;;5065417;28;20402;-89
2021/04/25 11:47:11;;;;;;;7.60;6.80;;;31.70;24.20;;;;;;5082146;28;20459;-88
2021/04/25 11:49:39;;;;;;;7.80;7.10;;;31.70;25.20;;;;;;5098781;28;20816;-87
2021/04/25 11:52:29;;;;;;;7.40;6.73;;;32.20;24.40;;;;;;5063730;28;20427;-86
2021/04/25 11:55:32;;;;;;;7.60;6.90;;;32.20;24.40;;;;;;5081464;28;20415;-87
2021/04/25 11:58:00;;;;;;;7.10;6.50;;;32.40;23.90;;;;;;5093843;28;20434;-86
2021/04/25 12:00:30;;;;;;;6.87;6.27;;;33.10;24.10;;;;;;5064739;28;20462;-86
2021/04/25 12:02:58;;;;;;;7.53;6.70;;;33.50;23.90;;;;;;5086628;28;20464;-86
2021/04/25 12:05:35;;;;;;;8.00;7.23;;;33.30;23.60;;;;;;5060685;28;20424;-87
2021/04/25 12:08:04;;;;;;;7.37;6.67;;;33.00;23.60;;;;;;5044051;28;20478;-86
2021/04/25 12:10:33;;;;;;;5.67;5.27;;;32.80;23.00;;;;;;5060944;28;20669;-86
2021/04/25 12:13:05;;;;;;;6.63;6.03;;;32.50;22.90;;;;;;5074832;28;20436;-87
2021/04/25 12:16:00;;;;;;;5.30;4.80;;;32.10;23.00;;;;;;5061012;28;20390;-87
2021/04/25 12:18:44;;;;;;;4.57;4.17;;;32.60;23.20;;;;;;5060774;28;20500;-87
2021/04/25 12:21:16;;;;;;;6.20;5.60;;;32.70;22.60;;;;;;5083862;28;20450;-87
2021/04/25 12:23:45;;;;;;;7.60;5.93;;;32.50;23.10;;;;;;5081756;28;20531;-86
2021/04/25 12:26:12;;;;;;;5.37;4.97;;;32.70;22.70;;;;;;5099704;28;20434;-87
2021/04/25 12:28:53;;;;;;;6.43;5.80;;;33.30;22.10;;;;;;5081651;28;20403;-87
2021/04/25 12:31:21;;;;;;;6.67;5.90;;;33.00;22.10;;;;;;5065007;28;20670;-87
2021/04/25 12:33:56;;;;;;;6.40;5.87;;;32.80;22.30;;;;;;5075710;28;20399;-85
2021/04/25 12:36:28;;;;;;;5.87;4.53;;;32.70;21.50;;;;;;5096466;28;20442;-86
2021/04/25 12:39:07;;;;;;;6.03;5.33;;;32.40;22.10;;;;;;5065195;28;20452;-86
2021/04/25 12:41:46;;;;;;;6.30;5.13;;;32.80;21.90;;;;;;5079923;28;20430;-87
2021/04/25 12:44:13;;;;;;;6.30;5.70;;;32.50;22.00;;;;;;5064029;28;20422;-86
2021/04/25 12:46:39;;;;;;;5.40;5.00;;;31.80;22.10;;;;;;5079258;28;20469;-87
2021/04/25 12:49:09;;;;;;;6.17;5.57;;;31.70;22.60;;;;;;5062991;28;20837;-87
2021/04/25 12:51:41;;;;;;;6.33;5.73;;;32.40;22.10;;;;;;5079432;28;20263;-87
2021/04/25 12:54:15;;;;;;;6.20;5.40;;;32.60;22.30;;;;;;5080234;28;20400;-87
2021/04/25 12:56:41;;;;;;;5.73;4.77;;;32.90;22.20;;;;;;5098073;28;20402;-86
2021/04/25 12:59:26;;;;;;;8.70;5.30;;;33.20;22.10;;;;;;5097283;28;20475;-86